sensor_id;sensor_type;location;lat;lon;timestamp;temperature;humidity
52125;DHT22;38119;52.710;6.398;2023-07-31T00:02:13;16.10;99.90
52125;DHT22;38119;52.710;6.398;2023-07-31T00:04:39;16.10;99.90
52125;DHT22;38119;52.710;6.398;2023-07-31T00:07:04;16.10;99.90
52125;DHT22;38119;52.710;6.398;2023-07-31T00:09:34;16.00;99.90
52125;DHT22;38119;52.710;6.398;2023-07-31T00:12:00;16.00;99.90
52125;DHT22;38119;52.710;6.398;2023-07-31T00:14:26;16.00;99.90
52125;DHT22;38119;52.710;6.398;2023-07-31T00:16:51;16.00;99.90
52125;DHT22;38119;52.710;6.398;2023-07-31T00:19:17;16.00;99.90
52125;DHT22;38119;52.710;6.398;2023-07-31T00:21:44;16.00;99.90
52125;DHT22;38119;52.710;6.398;2023-07-31T00:24:09;16.00;99.90
52125;DHT22;38119;52.710;6.398;2023-07-31T00:26:35;16.10;99.90
52125;DHT22;38119;52.710;6.398;2023-07-31T00:29:01;15.90;99.90
52125;DHT22;38119;52.710;6.398;2023-07-31T00:31:26;15.90;99.90
52125;DHT22;38119;52.710;6.398;2023-07-31T00:33:52;15.90;99.90
52125;DHT22;38119;52.710;6.398;2023-07-31T00:36:18;15.90;99.90
52125;DHT22;38119;52.710;6.398;2023-07-31T00:38:43;15.80;99.90
52125;DHT22;38119;52.710;6.398;2023-07-31T00:41:09;15.80;99.90
52125;DHT22;38119;52.710;6.398;2023-07-31T00:43:35;15.80;99.90
52125;DHT22;38119;52.710;6.398;2023-07-31T00:46:00;15.80;99.90
52125;DHT22;38119;52.710;6.398;2023-07-31T00:48:26;15.80;99.90
52125;DHT22;38119;52.710;6.398;2023-07-31T00:50:52;15.80;99.90
52125;DHT22;38119;52.710;6.398;2023-07-31T00:53:18;15.80;99.90
52125;DHT22;38119;52.710;6.398;2023-07-31T00:55:44;15.70;99.90
52125;DHT22;38119;52.710;6.398;2023-07-31T00:58:10;15.80;99.90
52125;DHT22;38119;52.710;6.398;2023-07-31T01:00:36;15.70;99.90
52125;DHT22;38119;52.710;6.398;2023-07-31T01:03:02;15.70;99.90
52125;DHT22;38119;52.710;6.398;2023-07-31T01:05:47;15.70;99.90
52125;DHT22;38119;52.710;6.398;2023-07-31T01:08:21;15.70;99.90
52125;DHT22;38119;52.710;6.398;2023-07-31T01:11:00;15.70;99.90
52125;DHT22;38119;52.710;6.398;2023-07-31T01:13:26;15.60;99.90
52125;DHT22;38119;52.710;6.398;2023-07-31T01:15:53;15.70;99.90
52125;DHT22;38119;52.710;6.398;2023-07-31T01:18:19;15.70;99.90
52125;DHT22;38119;52.710;6.398;2023-07-31T01:20:47;15.60;99.90
52125;DHT22;38119;52.710;6.398;2023-07-31T01:24:08;15.60;99.90
52125;DHT22;38119;52.710;6.398;2023-07-31T01:26:12;15.60;99.90
52125;DHT22;38119;52.710;6.398;2023-07-31T01:31:29;15.70;99.90
52125;DHT22;38119;52.710;6.398;2023-07-31T01:34:00;15.60;99.90
52125;DHT22;38119;52.710;6.398;2023-07-31T01:36:26;15.60;99.90
52125;DHT22;38119;52.710;6.398;2023-07-31T01:38:52;15.60;99.90
52125;DHT22;38119;52.710;6.398;2023-07-31T01:41:18;15.60;99.90
52125;DHT22;38119;52.710;6.398;2023-07-31T01:43:47;15.60;99.90
52125;DHT22;38119;52.710;6.398;2023-07-31T01:46:12;15.60;99.90
52125;DHT22;38119;52.710;6.398;2023-07-31T01:48:38;15.70;99.90
52125;DHT22;38119;52.710;6.398;2023-07-31T01:51:03;15.60;99.90
52125;DHT22;38119;52.710;6.398;2023-07-31T01:53:31;15.60;99.90
52125;DHT22;38119;52.710;6.398;2023-07-31T01:55:57;15.60;99.90
52125;DHT22;38119;52.710;6.398;2023-07-31T01:58:23;15.60;99.90
52125;DHT22;38119;52.710;6.398;2023-07-31T02:00:48;15.70;99.90
52125;DHT22;38119;52.710;6.398;2023-07-31T02:03:14;15.70;99.90
52125;DHT22;38119;52.710;6.398;2023-07-31T02:05:46;15.70;99.90
52125;DHT22;38119;52.710;6.398;2023-07-31T02:08:13;15.70;99.90
52125;DHT22;38119;52.710;6.398;2023-07-31T02:10:39;15.70;99.90
52125;DHT22;38119;52.710;6.398;2023-07-31T02:13:04;15.70;99.90
52125;DHT22;38119;52.710;6.398;2023-07-31T02:15:31;15.70;99.90
52125;DHT22;38119;52.710;6.398;2023-07-31T02:17:56;15.80;99.90
52125;DHT22;38119;52.710;6.398;2023-07-31T02:20:25;15.80;99.90
52125;DHT22;38119;52.710;6.398;2023-07-31T02:22:51;15.80;99.90
52125;DHT22;38119;52.710;6.398;2023-07-31T02:25:16;15.80;99.90
52125;DHT22;38119;52.710;6.398;2023-07-31T02:27:42;15.80;99.90
52125;DHT22;38119;52.710;6.398;2023-07-31T02:30:08;15.80;99.90
52125;DHT22;38119;52.710;6.398;2023-07-31T02:32:34;15.90;99.90
52125;DHT22;38119;52.710;6.398;2023-07-31T02:35:00;15.90;99.90
52125;DHT22;38119;52.710;6.398;2023-07-31T02:37:26;15.90;99.90
52125;DHT22;38119;52.710;6.398;2023-07-31T02:39:54;15.90;99.90
52125;DHT22;38119;52.710;6.398;2023-07-31T02:42:19;16.00;99.90
52125;DHT22;38119;52.710;6.398;2023-07-31T02:44:45;15.90;99.90
52125;DHT22;38119;52.710;6.398;2023-07-31T02:47:10;16.00;99.90
52125;DHT22;38119;52.710;6.398;2023-07-31T02:49:39;16.00;99.90
52125;DHT22;38119;52.710;6.398;2023-07-31T02:52:05;15.90;99.90
52125;DHT22;38119;52.710;6.398;2023-07-31T02:54:30;16.00;99.90
52125;DHT22;38119;52.710;6.398;2023-07-31T02:56:56;16.00;99.90
52125;DHT22;38119;52.710;6.398;2023-07-31T02:59:22;16.00;99.90
52125;DHT22;38119;52.710;6.398;2023-07-31T03:01:48;16.00;99.90
52125;DHT22;38119;52.710;6.398;2023-07-31T03:04:13;16.00;99.90
52125;DHT22;38119;52.710;6.398;2023-07-31T03:06:39;16.10;99.90
52125;DHT22;38119;52.710;6.398;2023-07-31T03:09:04;16.10;99.90
52125;DHT22;38119;52.710;6.398;2023-07-31T03:11:30;16.10;99.90
52125;DHT22;38119;52.710;6.398;2023-07-31T03:13:56;16.10;99.90
52125;DHT22;38119;52.710;6.398;2023-07-31T03:16:21;16.10;99.90
52125;DHT22;38119;52.710;6.398;2023-07-31T03:18:47;16.10;99.90
52125;DHT22;38119;52.710;6.398;2023-07-31T03:21:14;16.10;99.90
52125;DHT22;38119;52.710;6.398;2023-07-31T03:23:40;16.30;99.90
52125;DHT22;38119;52.710;6.398;2023-07-31T03:26:07;16.10;99.90
52125;DHT22;38119;52.710;6.398;2023-07-31T03:28:32;16.10;99.90
52125;DHT22;38119;52.710;6.398;2023-07-31T03:30:58;16.10;99.90
52125;DHT22;38119;52.710;6.398;2023-07-31T03:33:24;16.20;99.90
52125;DHT22;38119;52.710;6.398;2023-07-31T03:35:50;16.10;99.90
52125;DHT22;38119;52.710;6.398;2023-07-31T03:38:15;16.20;99.90
52125;DHT22;38119;52.710;6.398;2023-07-31T03:40:41;16.20;99.90
52125;DHT22;38119;52.710;6.398;2023-07-31T03:43:07;16.20;99.90
52125;DHT22;38119;52.710;6.398;2023-07-31T03:45:32;16.20;99.90
52125;DHT22;38119;52.710;6.398;2023-07-31T03:47:58;16.20;99.90
52125;DHT22;38119;52.710;6.398;2023-07-31T03:50:24;16.20;99.90
52125;DHT22;38119;52.710;6.398;2023-07-31T03:52:50;16.30;99.90
52125;DHT22;38119;52.710;6.398;2023-07-31T03:55:16;16.30;99.90
52125;DHT22;38119;52.710;6.398;2023-07-31T03:57:42;16.30;99.90
52125;DHT22;38119;52.710;6.398;2023-07-31T04:00:08;16.30;99.90
52125;DHT22;38119;52.710;6.398;2023-07-31T04:02:33;16.30;99.90
52125;DHT22;38119;52.710;6.398;2023-07-31T04:04:59;16.30;99.90
52125;DHT22;38119;52.710;6.398;2023-07-31T04:07:24;16.30;99.90
52125;DHT22;38119;52.710;6.398;2023-07-31T04:09:50;16.30;99.90
52125;DHT22;38119;52.710;6.398;2023-07-31T04:12:16;16.30;99.90
52125;DHT22;38119;52.710;6.398;2023-07-31T04:14:41;16.30;99.90
52125;DHT22;38119;52.710;6.398;2023-07-31T04:17:07;16.30;99.90
52125;DHT22;38119;52.710;6.398;2023-07-31T04:19:32;16.30;99.90
52125;DHT22;38119;52.710;6.398;2023-07-31T04:21:58;16.40;99.90
52125;DHT22;38119;52.710;6.398;2023-07-31T04:24:24;16.40;99.90
52125;DHT22;38119;52.710;6.398;2023-07-31T04:26:51;16.30;99.90
52125;DHT22;38119;52.710;6.398;2023-07-31T04:29:17;16.40;99.90
52125;DHT22;38119;52.710;6.398;2023-07-31T04:31:43;16.40;99.90
52125;DHT22;38119;52.710;6.398;2023-07-31T04:34:09;16.40;99.90
52125;DHT22;38119;52.710;6.398;2023-07-31T04:36:34;16.40;99.90
52125;DHT22;38119;52.710;6.398;2023-07-31T04:39:00;16.40;99.90
52125;DHT22;38119;52.710;6.398;2023-07-31T04:41:26;16.50;99.90
52125;DHT22;38119;52.710;6.398;2023-07-31T04:43:53;16.40;99.90
52125;DHT22;38119;52.710;6.398;2023-07-31T04:46:19;16.40;99.90
52125;DHT22;38119;52.710;6.398;2023-07-31T04:48:44;16.50;99.90
52125;DHT22;38119;52.710;6.398;2023-07-31T04:51:10;16.50;99.90
52125;DHT22;38119;52.710;6.398;2023-07-31T04:53:36;16.50;99.90
52125;DHT22;38119;52.710;6.398;2023-07-31T04:56:02;16.50;99.90
52125;DHT22;38119;52.710;6.398;2023-07-31T04:58:28;16.50;99.90
52125;DHT22;38119;52.710;6.398;2023-07-31T05:00:54;16.50;99.90
52125;DHT22;38119;52.710;6.398;2023-07-31T05:03:19;16.50;99.90
52125;DHT22;38119;52.710;6.398;2023-07-31T05:05:45;16.50;99.90
52125;DHT22;38119;52.710;6.398;2023-07-31T05:08:11;16.50;99.90
52125;DHT22;38119;52.710;6.398;2023-07-31T05:10:36;16.50;99.90
52125;DHT22;38119;52.710;6.398;2023-07-31T05:13:02;16.50;99.90
52125;DHT22;38119;52.710;6.398;2023-07-31T05:15:28;16.50;99.90
52125;DHT22;38119;52.710;6.398;2023-07-31T05:17:54;16.50;99.90
52125;DHT22;38119;52.710;6.398;2023-07-31T05:20:20;16.60;99.90
52125;DHT22;38119;52.710;6.398;2023-07-31T05:22:46;16.60;99.90
52125;DHT22;38119;52.710;6.398;2023-07-31T05:25:12;16.60;99.90
52125;DHT22;38119;52.710;6.398;2023-07-31T05:27:41;16.60;99.90
52125;DHT22;38119;52.710;6.398;2023-07-31T05:30:07;16.60;99.90
52125;DHT22;38119;52.710;6.398;2023-07-31T05:32:33;16.60;99.90
52125;DHT22;38119;52.710;6.398;2023-07-31T05:34:58;16.60;99.90
52125;DHT22;38119;52.710;6.398;2023-07-31T05:37:24;16.60;99.90
52125;DHT22;38119;52.710;6.398;2023-07-31T05:39:50;16.60;99.90
52125;DHT22;38119;52.710;6.398;2023-07-31T05:42:16;16.60;99.90
52125;DHT22;38119;52.710;6.398;2023-07-31T05:44:41;16.60;99.90
52125;DHT22;38119;52.710;6.398;2023-07-31T05:47:07;16.60;99.90
52125;DHT22;38119;52.710;6.398;2023-07-31T05:49:32;16.50;99.90
52125;DHT22;38119;52.710;6.398;2023-07-31T05:51:58;16.60;99.90
52125;DHT22;38119;52.710;6.398;2023-07-31T05:54:24;16.60;99.90
52125;DHT22;38119;52.710;6.398;2023-07-31T05:56:49;16.60;99.90
52125;DHT22;38119;52.710;6.398;2023-07-31T05:59:16;16.60;99.90
52125;DHT22;38119;52.710;6.398;2023-07-31T06:01:42;16.60;99.90
52125;DHT22;38119;52.710;6.398;2023-07-31T06:04:07;16.60;99.90
52125;DHT22;38119;52.710;6.398;2023-07-31T06:06:33;16.60;99.90
52125;DHT22;38119;52.710;6.398;2023-07-31T06:08:59;16.70;99.90
52125;DHT22;38119;52.710;6.398;2023-07-31T06:11:24;16.70;99.90
52125;DHT22;38119;52.710;6.398;2023-07-31T06:13:50;16.70;99.90
52125;DHT22;38119;52.710;6.398;2023-07-31T06:16:16;16.70;99.90
52125;DHT22;38119;52.710;6.398;2023-07-31T06:18:42;16.70;99.90
52125;DHT22;38119;52.710;6.398;2023-07-31T06:21:08;16.70;99.90
52125;DHT22;38119;52.710;6.398;2023-07-31T06:23:34;16.60;99.90
52125;DHT22;38119;52.710;6.398;2023-07-31T06:26:00;16.70;99.90
52125;DHT22;38119;52.710;6.398;2023-07-31T06:28:29;16.60;99.90
52125;DHT22;38119;52.710;6.398;2023-07-31T06:30:56;16.60;99.90
52125;DHT22;38119;52.710;6.398;2023-07-31T06:33:21;16.60;99.90
52125;DHT22;38119;52.710;6.398;2023-07-31T06:35:47;16.60;99.90
52125;DHT22;38119;52.710;6.398;2023-07-31T06:38:12;16.60;99.90
52125;DHT22;38119;52.710;6.398;2023-07-31T06:40:38;16.60;99.90
52125;DHT22;38119;52.710;6.398;2023-07-31T06:43:04;16.60;99.90
52125;DHT22;38119;52.710;6.398;2023-07-31T06:45:37;16.70;99.90
52125;DHT22;38119;52.710;6.398;2023-07-31T06:48:03;16.60;99.90
52125;DHT22;38119;52.710;6.398;2023-07-31T06:50:32;16.60;99.90
52125;DHT22;38119;52.710;6.398;2023-07-31T06:52:58;16.60;99.90
52125;DHT22;38119;52.710;6.398;2023-07-31T06:55:24;16.60;99.90
52125;DHT22;38119;52.710;6.398;2023-07-31T06:57:51;16.60;99.90
52125;DHT22;38119;52.710;6.398;2023-07-31T07:00:18;16.60;99.90
52125;DHT22;38119;52.710;6.398;2023-07-31T07:02:44;16.60;99.90
52125;DHT22;38119;52.710;6.398;2023-07-31T07:05:09;16.60;99.90
52125;DHT22;38119;52.710;6.398;2023-07-31T07:07:35;16.60;99.90
52125;DHT22;38119;52.710;6.398;2023-07-31T07:10:01;16.60;99.90
52125;DHT22;38119;52.710;6.398;2023-07-31T07:12:29;16.60;99.90
52125;DHT22;38119;52.710;6.398;2023-07-31T07:14:55;16.70;99.90
52125;DHT22;38119;52.710;6.398;2023-07-31T07:17:21;16.70;99.90
52125;DHT22;38119;52.710;6.398;2023-07-31T07:19:48;16.70;99.90
52125;DHT22;38119;52.710;6.398;2023-07-31T07:22:13;16.70;99.90
52125;DHT22;38119;52.710;6.398;2023-07-31T07:24:39;16.70;99.90
52125;DHT22;38119;52.710;6.398;2023-07-31T07:27:05;16.70;99.90
52125;DHT22;38119;52.710;6.398;2023-07-31T07:29:31;16.70;99.90
52125;DHT22;38119;52.710;6.398;2023-07-31T07:31:56;16.70;99.90
52125;DHT22;38119;52.710;6.398;2023-07-31T07:34:28;16.70;99.90
52125;DHT22;38119;52.710;6.398;2023-07-31T07:36:54;16.70;99.90
52125;DHT22;38119;52.710;6.398;2023-07-31T07:39:20;16.70;99.90
52125;DHT22;38119;52.710;6.398;2023-07-31T07:41:47;16.70;99.90
52125;DHT22;38119;52.710;6.398;2023-07-31T07:44:13;16.70;99.90
52125;DHT22;38119;52.710;6.398;2023-07-31T07:46:39;16.70;99.90
52125;DHT22;38119;52.710;6.398;2023-07-31T07:49:05;16.70;99.90
52125;DHT22;38119;52.710;6.398;2023-07-31T07:51:31;16.80;99.90
52125;DHT22;38119;52.710;6.398;2023-07-31T07:54:00;16.80;99.90
52125;DHT22;38119;52.710;6.398;2023-07-31T07:56:26;16.70;99.90
52125;DHT22;38119;52.710;6.398;2023-07-31T07:58:53;16.70;99.90
52125;DHT22;38119;52.710;6.398;2023-07-31T08:01:19;16.80;99.90
52125;DHT22;38119;52.710;6.398;2023-07-31T08:03:45;16.80;99.90
52125;DHT22;38119;52.710;6.398;2023-07-31T08:06:10;16.80;99.90
52125;DHT22;38119;52.710;6.398;2023-07-31T08:08:37;16.80;99.90
52125;DHT22;38119;52.710;6.398;2023-07-31T08:11:03;16.90;99.90
52125;DHT22;38119;52.710;6.398;2023-07-31T08:13:29;16.90;99.90
52125;DHT22;38119;52.710;6.398;2023-07-31T08:15:54;16.90;99.90
52125;DHT22;38119;52.710;6.398;2023-07-31T08:18:20;16.90;99.90
52125;DHT22;38119;52.710;6.398;2023-07-31T08:20:46;16.90;99.90
52125;DHT22;38119;52.710;6.398;2023-07-31T08:23:12;16.90;99.90
52125;DHT22;38119;52.710;6.398;2023-07-31T08:25:38;17.00;99.90
52125;DHT22;38119;52.710;6.398;2023-07-31T08:28:04;17.00;99.90
52125;DHT22;38119;52.710;6.398;2023-07-31T08:30:30;17.10;99.90
52125;DHT22;38119;52.710;6.398;2023-07-31T08:32:56;17.10;99.90
52125;DHT22;38119;52.710;6.398;2023-07-31T08:35:22;17.10;99.90
52125;DHT22;38119;52.710;6.398;2023-07-31T08:37:48;17.10;99.90
52125;DHT22;38119;52.710;6.398;2023-07-31T08:40:13;17.10;99.90
52125;DHT22;38119;52.710;6.398;2023-07-31T08:42:48;17.10;99.90
52125;DHT22;38119;52.710;6.398;2023-07-31T08:45:16;17.20;99.90
52125;DHT22;38119;52.710;6.398;2023-07-31T08:47:46;17.20;99.90
52125;DHT22;38119;52.710;6.398;2023-07-31T08:50:13;17.20;99.90
52125;DHT22;38119;52.710;6.398;2023-07-31T08:52:39;17.20;99.90
52125;DHT22;38119;52.710;6.398;2023-07-31T08:55:06;17.20;99.90
52125;DHT22;38119;52.710;6.398;2023-07-31T08:57:36;17.20;99.90
52125;DHT22;38119;52.710;6.398;2023-07-31T09:00:02;17.20;99.90
52125;DHT22;38119;52.710;6.398;2023-07-31T09:02:44;17.20;99.90
52125;DHT22;38119;52.710;6.398;2023-07-31T09:05:11;17.30;99.90
52125;DHT22;38119;52.710;6.398;2023-07-31T09:07:37;17.30;99.90
52125;DHT22;38119;52.710;6.398;2023-07-31T09:10:04;17.40;99.90
52125;DHT22;38119;52.710;6.398;2023-07-31T09:12:30;17.40;99.90
52125;DHT22;38119;52.710;6.398;2023-07-31T09:14:59;17.40;99.90
52125;DHT22;38119;52.710;6.398;2023-07-31T09:17:30;17.40;99.90
52125;DHT22;38119;52.710;6.398;2023-07-31T09:19:56;17.40;99.90
52125;DHT22;38119;52.710;6.398;2023-07-31T09:22:34;17.50;99.90
52125;DHT22;38119;52.710;6.398;2023-07-31T09:25:17;17.50;99.90
52125;DHT22;38119;52.710;6.398;2023-07-31T09:27:50;17.50;99.90
52125;DHT22;38119;52.710;6.398;2023-07-31T09:30:20;17.50;99.90
52125;DHT22;38119;52.710;6.398;2023-07-31T09:32:47;17.60;99.90
52125;DHT22;38119;52.710;6.398;2023-07-31T09:35:18;17.60;99.90
52125;DHT22;38119;52.710;6.398;2023-07-31T09:37:55;17.60;99.90
52125;DHT22;38119;52.710;6.398;2023-07-31T09:42:59;17.70;99.90
52125;DHT22;38119;52.710;6.398;2023-07-31T09:45:25;17.70;99.90
52125;DHT22;38119;52.710;6.398;2023-07-31T09:47:51;17.80;99.90
52125;DHT22;38119;52.710;6.398;2023-07-31T09:50:21;17.80;99.90
52125;DHT22;38119;52.710;6.398;2023-07-31T09:52:47;17.70;99.90
52125;DHT22;38119;52.710;6.398;2023-07-31T09:55:12;17.80;99.90
52125;DHT22;38119;52.710;6.398;2023-07-31T09:57:44;17.80;99.90
52125;DHT22;38119;52.710;6.398;2023-07-31T10:00:10;17.90;99.90
52125;DHT22;38119;52.710;6.398;2023-07-31T10:02:38;17.90;99.90
52125;DHT22;38119;52.710;6.398;2023-07-31T10:05:05;17.90;99.90
52125;DHT22;38119;52.710;6.398;2023-07-31T10:07:33;18.00;99.90
52125;DHT22;38119;52.710;6.398;2023-07-31T10:10:00;18.10;99.90
52125;DHT22;38119;52.710;6.398;2023-07-31T10:12:27;18.10;99.90
52125;DHT22;38119;52.710;6.398;2023-07-31T10:14:56;18.20;99.90
52125;DHT22;38119;52.710;6.398;2023-07-31T10:17:22;18.20;99.90
52125;DHT22;38119;52.710;6.398;2023-07-31T10:19:49;18.20;99.90
52125;DHT22;38119;52.710;6.398;2023-07-31T10:22:15;18.20;99.90
52125;DHT22;38119;52.710;6.398;2023-07-31T10:24:45;18.20;99.90
52125;DHT22;38119;52.710;6.398;2023-07-31T10:27:12;18.20;99.90
52125;DHT22;38119;52.710;6.398;2023-07-31T10:29:39;18.20;99.90
52125;DHT22;38119;52.710;6.398;2023-07-31T10:32:06;18.30;99.90
52125;DHT22;38119;52.710;6.398;2023-07-31T10:34:35;18.30;99.90
52125;DHT22;38119;52.710;6.398;2023-07-31T10:37:27;18.30;99.90
52125;DHT22;38119;52.710;6.398;2023-07-31T10:40:05;18.40;99.90
52125;DHT22;38119;52.710;6.398;2023-07-31T10:42:35;18.40;99.90
52125;DHT22;38119;52.710;6.398;2023-07-31T10:45:08;18.50;99.90
52125;DHT22;38119;52.710;6.398;2023-07-31T10:47:45;18.50;99.90
52125;DHT22;38119;52.710;6.398;2023-07-31T10:50:22;18.60;99.90
52125;DHT22;38119;52.710;6.398;2023-07-31T10:52:55;18.60;99.90
52125;DHT22;38119;52.710;6.398;2023-07-31T10:57:50;18.60;99.90
52125;DHT22;38119;52.710;6.398;2023-07-31T11:00:27;18.60;99.90
52125;DHT22;38119;52.710;6.398;2023-07-31T11:05:48;18.60;99.90
52125;DHT22;38119;52.710;6.398;2023-07-31T11:08:20;18.60;99.90
52125;DHT22;38119;52.710;6.398;2023-07-31T11:10:49;18.60;99.90
52125;DHT22;38119;52.710;6.398;2023-07-31T11:13:15;18.60;99.90
52125;DHT22;38119;52.710;6.398;2023-07-31T11:15:41;18.60;99.90
52125;DHT22;38119;52.710;6.398;2023-07-31T11:18:08;18.60;99.90
52125;DHT22;38119;52.710;6.398;2023-07-31T11:20:36;18.70;99.90
52125;DHT22;38119;52.710;6.398;2023-07-31T11:23:03;18.80;99.90
52125;DHT22;38119;52.710;6.398;2023-07-31T11:25:30;18.90;99.90
52125;DHT22;38119;52.710;6.398;2023-07-31T11:27:57;18.90;99.90
52125;DHT22;38119;52.710;6.398;2023-07-31T11:30:23;18.80;99.90
52125;DHT22;38119;52.710;6.398;2023-07-31T11:32:49;18.80;99.90
52125;DHT22;38119;52.710;6.398;2023-07-31T11:35:16;18.80;99.90
52125;DHT22;38119;52.710;6.398;2023-07-31T11:37:43;18.80;99.90
52125;DHT22;38119;52.710;6.398;2023-07-31T11:40:12;19.10;99.90
52125;DHT22;38119;52.710;6.398;2023-07-31T11:42:38;18.90;99.90
52125;DHT22;38119;52.710;6.398;2023-07-31T11:45:05;18.90;99.90
52125;DHT22;38119;52.710;6.398;2023-07-31T11:47:36;19.00;99.90
52125;DHT22;38119;52.710;6.398;2023-07-31T11:50:03;19.10;99.90
52125;DHT22;38119;52.710;6.398;2023-07-31T11:52:44;19.10;99.90
52125;DHT22;38119;52.710;6.398;2023-07-31T11:55:11;19.10;99.90
52125;DHT22;38119;52.710;6.398;2023-07-31T11:57:41;19.10;99.90
52125;DHT22;38119;52.710;6.398;2023-07-31T12:00:09;19.00;99.90
52125;DHT22;38119;52.710;6.398;2023-07-31T12:02:39;19.00;99.90
52125;DHT22;38119;52.710;6.398;2023-07-31T12:05:10;19.10;99.90
52125;DHT22;38119;52.710;6.398;2023-07-31T12:07:46;19.10;99.90
52125;DHT22;38119;52.710;6.398;2023-07-31T12:10:30;19.30;99.90
52125;DHT22;38119;52.710;6.398;2023-07-31T12:13:23;19.30;99.90
52125;DHT22;38119;52.710;6.398;2023-07-31T12:15:54;19.30;99.90
52125;DHT22;38119;52.710;6.398;2023-07-31T12:18:20;19.40;99.90
52125;DHT22;38119;52.710;6.398;2023-07-31T12:20:48;19.40;99.90
52125;DHT22;38119;52.710;6.398;2023-07-31T12:23:22;19.40;99.90
52125;DHT22;38119;52.710;6.398;2023-07-31T12:26:13;19.40;99.90
52125;DHT22;38119;52.710;6.398;2023-07-31T12:28:49;19.50;99.90
52125;DHT22;38119;52.710;6.398;2023-07-31T12:31:16;19.60;99.90
52125;DHT22;38119;52.710;6.398;2023-07-31T12:33:46;19.80;99.90
52125;DHT22;38119;52.710;6.398;2023-07-31T12:36:17;20.00;99.90
52125;DHT22;38119;52.710;6.398;2023-07-31T12:38:43;20.30;99.90
52125;DHT22;38119;52.710;6.398;2023-07-31T12:41:09;20.50;99.90
52125;DHT22;38119;52.710;6.398;2023-07-31T12:43:36;20.50;99.90
52125;DHT22;38119;52.710;6.398;2023-07-31T12:46:05;20.60;99.90
52125;DHT22;38119;52.710;6.398;2023-07-31T12:48:33;20.60;99.90
52125;DHT22;38119;52.710;6.398;2023-07-31T12:50:59;20.50;99.90
52125;DHT22;38119;52.710;6.398;2023-07-31T12:53:25;20.40;99.90
52125;DHT22;38119;52.710;6.398;2023-07-31T12:55:50;20.30;99.90
52125;DHT22;38119;52.710;6.398;2023-07-31T12:58:16;20.10;99.90
52125;DHT22;38119;52.710;6.398;2023-07-31T13:00:42;20.00;99.90
52125;DHT22;38119;52.710;6.398;2023-07-31T13:03:08;19.90;99.90
52125;DHT22;38119;52.710;6.398;2023-07-31T13:05:34;19.90;99.90
52125;DHT22;38119;52.710;6.398;2023-07-31T13:08:00;19.80;99.90
52125;DHT22;38119;52.710;6.398;2023-07-31T13:10:27;19.80;99.90
52125;DHT22;38119;52.710;6.398;2023-07-31T13:12:56;19.80;99.90
52125;DHT22;38119;52.710;6.398;2023-07-31T13:15:24;19.70;99.90
52125;DHT22;38119;52.710;6.398;2023-07-31T13:17:50;19.80;99.90
52125;DHT22;38119;52.710;6.398;2023-07-31T13:20:16;19.80;99.90
52125;DHT22;38119;52.710;6.398;2023-07-31T13:22:42;19.90;99.90
52125;DHT22;38119;52.710;6.398;2023-07-31T13:25:11;19.80;99.90
52125;DHT22;38119;52.710;6.398;2023-07-31T13:27:36;19.80;99.90
52125;DHT22;38119;52.710;6.398;2023-07-31T13:30:03;19.70;99.90
52125;DHT22;38119;52.710;6.398;2023-07-31T13:32:29;19.70;99.90
52125;DHT22;38119;52.710;6.398;2023-07-31T13:34:56;19.60;99.90
52125;DHT22;38119;52.710;6.398;2023-07-31T13:37:21;19.50;99.90
52125;DHT22;38119;52.710;6.398;2023-07-31T13:39:47;19.50;99.90
52125;DHT22;38119;52.710;6.398;2023-07-31T13:42:13;19.40;99.90
52125;DHT22;38119;52.710;6.398;2023-07-31T13:44:41;19.40;99.90
52125;DHT22;38119;52.710;6.398;2023-07-31T13:47:08;19.30;99.90
52125;DHT22;38119;52.710;6.398;2023-07-31T13:49:37;19.00;99.90
52125;DHT22;38119;52.710;6.398;2023-07-31T13:52:04;19.20;99.90
52125;DHT22;38119;52.710;6.398;2023-07-31T13:54:30;19.20;99.90
52125;DHT22;38119;52.710;6.398;2023-07-31T13:56:56;19.30;99.90
52125;DHT22;38119;52.710;6.398;2023-07-31T13:59:24;19.30;99.90
52125;DHT22;38119;52.710;6.398;2023-07-31T14:01:50;19.30;99.90
52125;DHT22;38119;52.710;6.398;2023-07-31T14:04:16;19.30;99.90
52125;DHT22;38119;52.710;6.398;2023-07-31T14:06:43;19.40;99.90
52125;DHT22;38119;52.710;6.398;2023-07-31T14:09:09;19.40;99.90
52125;DHT22;38119;52.710;6.398;2023-07-31T14:11:35;19.40;99.90
52125;DHT22;38119;52.710;6.398;2023-07-31T14:14:01;19.50;99.90
52125;DHT22;38119;52.710;6.398;2023-07-31T14:16:27;19.50;99.90
52125;DHT22;38119;52.710;6.398;2023-07-31T14:18:56;19.50;99.90
52125;DHT22;38119;52.710;6.398;2023-07-31T14:21:25;19.50;99.90
52125;DHT22;38119;52.710;6.398;2023-07-31T14:23:51;19.60;99.90
52125;DHT22;38119;52.710;6.398;2023-07-31T14:26:24;19.70;99.90
52125;DHT22;38119;52.710;6.398;2023-07-31T14:28:50;19.70;99.90
52125;DHT22;38119;52.710;6.398;2023-07-31T14:31:17;19.70;99.90
52125;DHT22;38119;52.710;6.398;2023-07-31T14:33:43;19.70;99.90
52125;DHT22;38119;52.710;6.398;2023-07-31T14:36:08;19.60;99.90
52125;DHT22;38119;52.710;6.398;2023-07-31T14:38:34;19.70;99.90
52125;DHT22;38119;52.710;6.398;2023-07-31T14:41:00;19.60;99.90
52125;DHT22;38119;52.710;6.398;2023-07-31T14:43:25;19.60;99.90
52125;DHT22;38119;52.710;6.398;2023-07-31T14:45:51;19.50;99.90
52125;DHT22;38119;52.710;6.398;2023-07-31T14:48:18;19.50;99.90
52125;DHT22;38119;52.710;6.398;2023-07-31T14:50:44;19.40;99.90
52125;DHT22;38119;52.710;6.398;2023-07-31T14:53:10;19.40;99.90
52125;DHT22;38119;52.710;6.398;2023-07-31T14:55:36;19.40;99.90
52125;DHT22;38119;52.710;6.398;2023-07-31T14:58:02;19.30;99.90
52125;DHT22;38119;52.710;6.398;2023-07-31T15:00:28;19.30;99.90
52125;DHT22;38119;52.710;6.398;2023-07-31T15:02:54;19.20;99.90
52125;DHT22;38119;52.710;6.398;2023-07-31T15:05:19;19.20;99.90
52125;DHT22;38119;52.710;6.398;2023-07-31T15:07:45;19.20;99.90
52125;DHT22;38119;52.710;6.398;2023-07-31T15:10:11;19.20;99.90
52125;DHT22;38119;52.710;6.398;2023-07-31T15:12:39;19.20;99.90
52125;DHT22;38119;52.710;6.398;2023-07-31T15:15:05;19.20;99.90
52125;DHT22;38119;52.710;6.398;2023-07-31T15:17:35;19.20;99.90
52125;DHT22;38119;52.710;6.398;2023-07-31T15:20:01;19.10;99.90
52125;DHT22;38119;52.710;6.398;2023-07-31T15:22:27;19.10;99.90
52125;DHT22;38119;52.710;6.398;2023-07-31T15:24:54;19.20;99.90
52125;DHT22;38119;52.710;6.398;2023-07-31T15:27:23;19.10;99.90
52125;DHT22;38119;52.710;6.398;2023-07-31T15:29:49;19.10;99.90
52125;DHT22;38119;52.710;6.398;2023-07-31T15:32:17;19.00;99.90
52125;DHT22;38119;52.710;6.398;2023-07-31T15:34:43;19.00;99.90
52125;DHT22;38119;52.710;6.398;2023-07-31T15:37:09;18.90;99.90
52125;DHT22;38119;52.710;6.398;2023-07-31T15:39:35;18.90;99.90
52125;DHT22;38119;52.710;6.398;2023-07-31T15:42:01;18.80;99.90